Time;durP1;ratioP1;P1;durP2;ratioP2;P2;SDS_P1;SDS_P2;PMS_P1;PMS_P2;Temp;Humidity;BMP_temperature;BMP_pressure;BME280_temperature;BME280_humidity;BME280_pressure;Samples;Min_cycle;Max_cycle;Signal;HPM_P1;HPM_P2
2022/07/05 00:00:43;;;;;;;24.58;15.63;;;;;;;20.30;62.15;99018.06;5051129;28;20059;-62
2022/07/05 00:03:09;;;;;;;22.50;15.10;;;;;;;20.28;62.77;99017.56;5050787;28;20037;-62
2022/07/05 00:05:36;;;;;;;21.05;15.15;;;;;;;20.28;62.61;99020.25;5051734;28;20041;-62
2022/07/05 00:08:02;;;;;;;22.40;15.40;;;;;;;20.27;63.02;99018.66;5052121;28;20043;-62
2022/07/05 00:10:28;;;;;;;25.00;15.25;;;;;;;20.25;63.22;99018.97;5050364;28;20036;-63
2022/07/05 00:12:54;;;;;;;24.45;15.18;;;;;;;20.19;63.09;99015.63;5051960;28;20045;-62
2022/07/05 00:15:19;;;;;;;22.92;14.93;;;;;;;20.17;63.38;99017.03;5051692;28;20048;-62
2022/07/05 00:17:45;;;;;;;20.13;14.75;;;;;;;20.13;63.70;99013.38;5033619;28;20454;-62
2022/07/05 00:20:11;;;;;;;27.40;16.83;;;;;;;20.12;63.48;99023.34;5030349;28;20220;-62
2022/07/05 00:22:37;;;;;;;24.33;16.45;;;;;;;20.11;63.35;99024.44;5051369;28;20053;-62
2022/07/05 00:25:03;;;;;;;22.17;15.98;;;;;;;20.16;63.37;99023.53;5051701;28;20120;-61
2022/07/05 00:27:28;;;;;;;27.58;15.98;;;;;;;20.14;63.25;99014.94;5051943;28;20045;-61
2022/07/05 00:29:54;;;;;;;26.17;16.65;;;;;;;20.12;63.85;99012.59;5051511;28;20459;-62
2022/07/05 00:32:20;;;;;;;28.05;16.13;;;;;;;20.13;63.38;99021.44;5051034;28;20551;-62
2022/07/05 00:34:46;;;;;;;25.83;16.50;;;;;;;20.12;63.46;99022.56;5051179;28;20571;-61
2022/07/05 00:37:12;;;;;;;22.65;16.38;;;;;;;20.12;63.35;99023.34;5051459;28;20052;-62
2022/07/05 00:39:37;;;;;;;28.90;16.27;;;;;;;20.10;63.47;99028.25;5050967;28;20158;-61
2022/07/05 00:42:03;;;;;;;27.13;15.88;;;;;;;20.09;63.44;99026.66;5031538;28;20049;-62
2022/07/05 00:44:32;;;;;;;22.92;15.60;;;;;;;20.07;63.76;99030.75;5030145;28;20053;-62
2022/07/05 00:46:58;;;;;;;22.60;15.18;;;;;;;20.04;63.71;99040.22;5038771;28;20421;-61
2022/07/05 00:49:25;;;;;;;24.05;16.13;;;;;;;20.01;63.91;99032.00;5051081;28;20112;-61
2022/07/05 00:51:51;;;;;;;22.85;16.38;;;;;;;19.97;64.04;99031.78;5016645;28;20049;-62
2022/07/05 00:54:17;;;;;;;25.15;16.73;;;;;;;19.95;65.23;99028.63;5048075;28;20517;-60
2022/07/05 00:56:43;;;;;;;19.83;15.70;;;;;;;19.91;66.08;99039.22;5049983;28;20118;-62
2022/07/05 00:59:08;;;;;;;21.95;16.25;;;;;;;19.86;66.64;99041.25;5050138;28;20059;-61
2022/07/05 01:01:34;;;;;;;24.10;17.42;;;;;;;19.82;67.46;99035.66;5046511;28;20057;-61
2022/07/05 01:04:00;;;;;;;22.95;16.77;;;;;;;19.81;67.34;99030.59;5031105;28;20545;-62
2022/07/05 01:06:25;;;;;;;18.42;16.40;;;;;;;19.84;66.76;99040.75;5033209;28;20048;-61
2022/07/05 01:08:51;;;;;;;22.08;16.73;;;;;;;19.88;66.73;99041.72;5033840;28;20521;-62
2022/07/05 01:11:17;;;;;;;21.77;17.30;;;;;;;19.91;65.93;99047.28;5033516;28;20033;-60
2022/07/05 01:13:42;;;;;;;30.55;19.23;;;;;;;20.00;65.80;99047.34;5033728;28;20396;-61
2022/07/05 01:16:09;;;;;;;24.40;18.30;;;;;;;20.10;65.49;99047.06;5035162;28;20056;-60
2022/07/05 01:18:35;;;;;;;26.05;18.25;;;;;;;20.22;65.09;99048.41;5052400;28;20048;-62
2022/07/05 01:21:02;;;;;;;26.35;19.00;;;;;;;20.34;64.96;99037.84;5053854;28;20037;-62
2022/07/05 01:23:32;;;;;;;27.30;19.17;;;;;;;20.44;65.29;99040.25;5053764;28;20068;-61
2022/07/05 01:26:04;;;;;;;23.88;18.40;;;;;;;20.59;65.26;99034.50;5053485;28;20095;-62
2022/07/05 01:28:30;;;;;;;25.85;16.85;;;;;;;20.70;65.84;99042.28;5037125;28;20053;-61
2022/07/05 01:30:56;;;;;;;23.20;16.30;;;;;;;20.89;65.04;99029.34;5053419;28;20048;-61
2022/07/05 01:33:28;;;;;;;23.27;16.63;;;;;;;21.11;62.23;99036.50;5054415;28;20040;-61
2022/07/05 01:35:55;;;;;;;19.42;15.57;;;;;;;21.32;61.33;99033.97;5053185;28;20124;-62
2022/07/05 01:38:20;;;;;;;22.80;16.52;;;;;;;21.53;61.98;99036.84;5054617;28;20048;-64
2022/07/05 01:40:50;;;;;;;22.00;16.40;;;;;;;21.72;61.47;99036.53;5054406;28;20041;-62
2022/07/05 01:43:15;;;;;;;19.55;16.05;;;;;;;21.94;61.39;99030.94;5053486;28;20045;-61
2022/07/05 01:45:43;;;;;;;19.90;16.85;;;;;;;22.17;60.64;99025.31;5036356;28;20417;-62
2022/07/05 01:48:14;;;;;;;25.58;17.05;;;;;;;22.35;59.85;99031.44;5032049;28;20057;-62
2022/07/05 01:50:52;;;;;;;19.60;16.95;;;;;;;22.51;59.67;99020.91;5034504;28;20041;-62
2022/07/05 01:53:22;;;;;;;19.50;16.55;;;;;;;22.74;59.40;99021.44;5000802;28;20433;-62
2022/07/05 01:55:48;;;;;;;22.30;17.63;;;;;;;22.93;59.00;99012.88;5034289;28;20045;-61
2022/07/05 01:58:14;;;;;;;20.00;16.95;;;;;;;23.09;57.87;99014.69;5016643;28;20487;-61
2022/07/05 02:00:47;;;;;;;20.65;17.50;;;;;;;23.26;57.48;99015.69;5033985;28;20123;-62
2022/07/05 02:03:13;;;;;;;20.35;17.00;;;;;;;23.51;56.88;99017.38;5042468;28;20473;-62
2022/07/05 02:05:41;;;;;;;21.38;15.90;;;;;;;23.87;55.78;99010.53;5052618;28;20041;-62
2022/07/05 02:08:06;;;;;;;21.42;15.95;;;;;;;24.30;54.60;99024.72;5052619;28;20083;-62
2022/07/05 02:10:34;;;;;;;18.10;15.52;;;;;;;24.57;52.87;99023.28;5052843;28;20152;-62
2022/07/05 02:13:00;;;;;;;21.58;16.55;;;;;;;24.74;52.53;99023.03;5017470;28;20103;-62
2022/07/05 02:15:26;;;;;;;24.42;16.88;;;;;;;24.93;51.76;99017.03;5032636;28;20464;-61
2022/07/05 02:17:52;;;;;;;21.48;16.30;;;;;;;25.09;51.29;99019.78;5033028;28;20052;-61
2022/07/05 02:20:18;;;;;;;22.60;16.65;;;;;;;25.28;51.26;99025.44;5016211;28;20041;-62
2022/07/05 02:22:45;;;;;;;23.15;16.90;;;;;;;25.45;50.40;99029.00;5032667;28;20041;-62
2022/07/05 02:25:11;;;;;;;26.23;16.17;;;;;;;25.62;50.08;99028.72;5032653;28;20044;-62
2022/07/05 02:27:37;;;;;;;31.33;17.35;;;;;;;25.95;49.06;99024.94;5032458;28;20042;-62
2022/07/05 02:30:04;;;;;;;24.38;16.52;;;;;;;26.21;48.50;99029.88;5032279;28;20041;-62
2022/07/05 02:32:36;;;;;;;28.98;16.90;;;;;;;26.46;47.56;99027.75;5016799;28;20045;-62
2022/07/05 02:35:04;;;;;;;25.20;17.90;;;;;;;26.56;46.88;99038.13;5032166;28;20052;-62
2022/07/05 02:37:31;;;;;;;29.05;17.60;;;;;;;26.67;46.59;99027.50;5032272;28;20075;-62
2022/07/05 02:39:57;;;;;;;35.67;17.60;;;;;;;26.87;45.84;99031.84;5023228;28;20491;-62
2022/07/05 02:42:23;;;;;;;23.08;16.75;;;;;;;27.21;45.91;99029.50;5033563;28;20070;-61
2022/07/05 02:44:49;;;;;;;22.98;16.10;;;;;;;27.50;45.61;99035.50;5048641;28;20510;-61
2022/07/05 02:47:16;;;;;;;23.40;16.95;;;;;;;27.80;44.83;99035.72;5031996;28;20049;-61
2022/07/05 02:49:43;;;;;;;27.48;16.63;;;;;;;27.97;44.67;99032.53;5031917;28;20045;-62
2022/07/05 02:52:08;;;;;;;27.35;16.45;;;;;;;28.21;43.69;99031.38;5032161;28;20565;-61
2022/07/05 02:54:34;;;;;;;30.05;17.48;;;;;;;28.40;43.55;99046.88;5031679;28;20041;-62
2022/07/05 02:57:02;;;;;;;25.08;16.50;;;;;;;28.55;42.88;99041.66;5032017;28;20465;-62
2022/07/05 02:59:28;;;;;;;27.90;16.17;;;;;;;28.65;43.31;99052.75;5031554;28;20045;-62
2022/07/05 03:01:54;;;;;;;23.02;16.15;;;;;;;28.69;43.21;99044.63;5032409;28;20045;-62
2022/07/05 03:04:20;;;;;;;20.70;15.98;;;;;;;28.85;42.50;99053.41;5031654;28;20072;-61
2022/07/05 03:06:53;;;;;;;24.20;17.60;;;;;;;28.88;42.12;99051.91;5031538;28;20513;-62
2022/07/05 03:09:23;;;;;;;20.15;15.98;;;;;;;28.97;41.79;99055.13;5031409;28;20037;-61
2022/07/05 03:11:49;;;;;;;17.88;15.10;;;;;;;29.11;41.35;99051.84;5015170;28;20239;-61
2022/07/05 03:14:15;;;;;;;22.83;16.35;;;;;;;29.26;41.88;99055.56;5031399;28;20045;-61
2022/07/05 03:16:44;;;;;;;23.77;16.20;;;;;;;29.31;41.54;99055.25;5031252;28;20073;-61
2022/07/05 03:19:11;;;;;;;20.17;15.87;;;;;;;29.54;41.46;99052.41;5015421;28;20094;-61
2022/07/05 03:21:36;;;;;;;23.40;15.88;;;;;;;29.69;41.38;99056.09;5030902;28;20316;-62
2022/07/05 03:24:03;;;;;;;19.50;16.20;;;;;;;29.69;41.19;99053.38;5031443;28;20110;-61
2022/07/05 03:26:29;;;;;;;26.85;16.05;;;;;;;29.64;41.67;99060.72;5031422;28;20060;-62
2022/07/05 03:28:55;;;;;;;22.48;16.90;;;;;;;29.58;40.94;99059.47;5030759;28;20033;-62
2022/07/05 03:31:21;;;;;;;19.70;17.02;;;;;;;29.54;41.35;99058.63;5031415;28;20145;-62
2022/07/05 03:33:47;;;;;;;26.85;17.13;;;;;;;29.43;40.77;99057.72;5031060;28;20425;-63
2022/07/05 03:36:13;;;;;;;27.60;18.48;;;;;;;29.38;41.33;99058.81;5030919;28;20045;-62
2022/07/05 03:38:41;;;;;;;25.02;18.15;;;;;;;29.54;41.19;99057.88;5030764;28;20049;-60
2022/07/05 03:41:07;;;;;;;29.02;18.08;;;;;;;29.76;40.87;99067.88;5051179;28;20041;-62
2022/07/05 03:43:33;;;;;;;27.05;18.33;;;;;;;29.93;40.30;99063.00;5050853;28;20049;-62
2022/07/05 03:45:59;;;;;;;30.50;18.92;;;;;;;29.91;39.71;99062.56;5050542;28;20049;-62
2022/07/05 03:48:27;;;;;;;28.88;17.27;;;;;;;30.01;40.17;99053.72;5050491;28;20368;-61
2022/07/05 03:50:53;;;;;;;30.13;19.10;;;;;;;30.12;38.85;99071.00;5033658;28;20091;-62
2022/07/05 03:53:19;;;;;;;29.60;19.92;;;;;;;30.20;38.94;99066.34;5052207;28;20052;-63
2022/07/05 03:55:45;;;;;;;33.28;21.92;;;;;;;30.20;39.06;99071.81;5050260;28;20573;-61
2022/07/05 03:58:12;;;;;;;34.63;21.27;;;;;;;29.98;39.27;99063.44;5050050;28;20056;-63
2022/07/05 04:00:39;;;;;;;35.65;19.58;;;;;;;29.75;39.94;99073.72;5001163;28;20481;-62
2022/07/05 04:03:08;;;;;;;30.38;17.95;;;;;;;29.78;40.26;99068.31;5051652;28;20073;-62
2022/07/05 04:05:35;;;;;;;26.63;16.83;;;;;;;29.83;40.14;99067.97;5050162;28;20127;-62
2022/07/05 04:08:00;;;;;;;26.80;17.33;;;;;;;30.01;39.92;99070.09;5050414;28;20052;-62
2022/07/05 04:10:31;;;;;;;27.00;16.45;;;;;;;30.25;39.56;99083.25;5050238;28;20140;-62
2022/07/05 04:12:57;;;;;;;25.90;17.17;;;;;;;30.38;39.04;99078.25;5050456;28;20045;-62
2022/07/05 04:15:24;;;;;;;24.38;15.32;;;;;;;30.67;37.68;99079.28;5051350;28;20064;-61
2022/07/05 04:17:55;;;;;;;18.80;14.32;;;;;;;30.95;36.47;99072.47;5043995;28;20048;-63
2022/07/05 04:20:24;;;;;;;17.33;12.15;;;;;;;31.15;34.73;99079.22;5030183;28;20049;-62
2022/07/05 04:22:51;;;;;;;22.05;12.90;;;;;;;31.29;35.20;99073.03;5030144;28;20037;-62
2022/07/05 04:25:19;;;;;;;26.00;13.85;;;;;;;31.51;36.08;99076.69;5030126;28;20049;-62
2022/07/05 04:27:56;;;;;;;21.77;12.25;;;;;;;31.63;34.36;99078.28;5030241;28;20483;-62
2022/07/05 04:30:25;;;;;;;17.17;11.35;;;;;;;31.48;34.05;99071.97;5029872;28;20095;-62
2022/07/05 04:32:52;;;;;;;17.17;11.13;;;;;;;31.56;32.55;99072.75;5012824;28;20053;-60
2022/07/05 04:35:18;;;;;;;16.13;10.27;;;;;;;31.58;32.81;99075.91;5013200;28;20121;-62
2022/07/05 04:37:46;;;;;;;16.42;10.07;;;;;;;31.53;32.65;99070.81;5040099;28;20120;-62
2022/07/05 04:40:14;;;;;;;18.95;9.77;;;;;;;31.62;32.56;99077.50;4995257;28;20458;-61
2022/07/05 04:42:41;;;;;;;15.57;10.15;;;;;;;31.71;32.19;99079.88;5023516;28;20620;-61
2022/07/05 04:45:09;;;;;;;14.48;9.70;;;;;;;31.92;32.29;99081.13;5045622;28;20478;-61
2022/07/05 04:47:36;;;;;;;17.63;11.07;;;;;;;31.83;31.86;99070.53;5033353;28;20045;-63
2022/07/05 04:50:04;;;;;;;13.63;10.45;;;;;;;32.06;32.02;99072.91;5029472;28;20037;-63
2022/07/05 04:52:30;;;;;;;18.70;10.30;;;;;;;32.11;31.48;99080.75;5030129;28;20095;-62
2022/07/05 04:54:56;;;;;;;17.35;10.57;;;;;;;31.94;32.24;99063.09;5029832;28;20572;-63
2022/07/05 04:57:22;;;;;;;13.93;10.18;;;;;;;32.13;32.40;99070.19;5046003;28;20041;-63
2022/07/05 04:59:47;;;;;;;14.13;10.35;;;;;;;32.30;32.30;99072.19;5049670;28;20080;-61
2022/07/05 05:02:13;;;;;;;18.05;10.48;;;;;;;32.35;30.95;99077.25;5048564;28;20517;-62
2022/07/05 05:04:39;;;;;;;10.30;9.40;;;;;;;32.22;31.34;99072.56;5042771;28;20533;-60
2022/07/05 05:07:05;;;;;;;12.82;9.88;;;;;;;32.21;31.06;99082.75;5030091;28;20104;-66
2022/07/05 05:09:30;;;;;;;11.73;8.77;;;;;;;32.25;30.69;99077.25;5028380;28;20068;-61
2022/07/05 05:11:56;;;;;;;11.93;8.55;;;;;;;32.31;30.68;99070.22;5029516;28;20041;-63
2022/07/05 05:14:22;;;;;;;10.13;8.80;;;;;;;32.18;30.48;99077.25;5029954;28;20520;-62
2022/07/05 05:16:48;;;;;;;10.73;8.98;;;;;;;31.93;30.93;99074.47;5030126;28;20045;-62
2022/07/05 05:19:14;;;;;;;9.77;8.55;;;;;;;31.68;31.63;99075.19;5029287;28;20034;-62
2022/07/05 05:21:39;;;;;;;11.43;8.85;;;;;;;31.56;31.36;99068.09;5030515;28;20107;-63
2022/07/05 05:24:06;;;;;;;9.52;8.35;;;;;;;31.42;31.91;99076.25;5028949;28;20116;-62
2022/07/05 05:26:31;;;;;;;11.95;8.77;;;;;;;31.33;32.14;99073.06;5028002;28;20072;-63
2022/07/05 05:28:57;;;;;;;9.95;8.80;;;;;;;31.22;31.82;99073.00;5028911;28;20581;-63
2022/07/05 05:31:23;;;;;;;9.85;8.80;;;;;;;30.99;32.47;99070.53;5030726;28;20042;-63
2022/07/05 05:33:48;;;;;;;13.77;8.95;;;;;;;30.72;33.12;99076.19;5029578;28;20064;-63
2022/07/05 05:36:14;;;;;;;14.07;8.90;;;;;;;30.54;33.40;99069.81;5029804;28;20041;-66
2022/07/05 05:38:40;;;;;;;10.07;9.18;;;;;;;30.37;33.80;99071.22;5028599;28;20045;-65
2022/07/05 05:41:06;;;;;;;11.60;9.38;;;;;;;30.31;34.09;99068.06;5028853;28;20490;-63
2022/07/05 05:43:31;;;;;;;14.75;8.98;;;;;;;30.19;34.54;99065.59;5029999;28;20053;-63
2022/07/05 05:45:57;;;;;;;11.48;8.85;;;;;;;30.05;34.19;99065.44;5032994;28;20497;-63
2022/07/05 05:48:23;;;;;;;12.35;8.93;;;;;;;29.95;34.63;99061.44;5028364;28;20046;-63
2022/07/05 05:50:48;;;;;;;11.23;9.68;;;;;;;29.85;34.51;99057.44;5039706;28;20429;-63
2022/07/05 05:53:14;;;;;;;14.55;9.02;;;;;;;29.81;34.82;99061.31;5035933;28;20597;-63
2022/07/05 05:55:41;;;;;;;13.38;9.35;;;;;;;29.85;34.62;99060.16;5034961;28;20494;-62
2022/07/05 05:58:18;;;;;;;11.90;9.25;;;;;;;29.96;34.51;99056.78;5034946;28;20037;-63
2022/07/05 06:00:47;;;;;;;15.65;9.20;;;;;;;30.15;33.85;99055.75;5043200;28;20060;-63
2022/07/05 06:03:15;;;;;;;10.40;9.30;;;;;;;30.09;33.45;99056.13;5045419;28;20044;-62
2022/07/05 06:05:40;;;;;;;11.32;8.95;;;;;;;30.00;33.26;99055.66;5031054;28;20157;-63
2022/07/05 06:08:06;;;;;;;11.38;9.35;;;;;;;29.85;33.74;99054.69;5033358;28;20179;-62
2022/07/05 06:10:34;;;;;;;10.50;8.82;;;;;;;29.73;33.66;99054.97;5032575;28;20109;-62
2022/07/05 06:13:03;;;;;;;12.02;8.25;;;;;;;29.75;33.92;99060.84;5032173;28;20041;-63
2022/07/05 06:15:28;;;;;;;12.25;8.63;;;;;;;29.67;33.37;99061.94;5033354;28;20048;-62
2022/07/05 06:17:55;;;;;;;11.57;8.38;;;;;;;29.67;33.27;99055.69;5032951;28;20049;-62
2022/07/05 06:20:22;;;;;;;13.50;8.57;;;;;;;29.63;33.85;99053.69;5032863;28;20445;-62
2022/07/05 06:22:49;;;;;;;12.52;8.65;;;;;;;29.72;33.72;99047.94;5033830;28;20049;-61
2022/07/05 06:25:15;;;;;;;9.30;8.40;;;;;;;29.81;33.28;99050.38;5033105;28;20041;-64
2022/07/05 06:27:50;;;;;;;12.02;8.82;;;;;;;29.75;33.54;99044.47;5033274;28;20048;-65
2022/07/05 06:30:17;;;;;;;11.55;8.85;;;;;;;29.82;33.57;99043.75;5034482;28;20037;-63
2022/07/05 06:32:44;;;;;;;12.73;9.15;;;;;;;29.88;33.88;99053.97;5052156;28;20047;-68
2022/07/05 06:35:10;;;;;;;10.93;9.07;;;;;;;29.94;34.24;99051.66;5051242;28;20052;-64
2022/07/05 06:37:48;;;;;;;12.55;9.75;;;;;;;29.94;34.22;99043.47;5049239;28;20056;-66
2022/07/05 06:40:19;;;;;;;12.75;10.38;;;;;;;29.96;34.14;99043.88;5033068;28;20400;-64
2022/07/05 06:42:45;;;;;;;12.07;9.80;;;;;;;29.98;34.33;99038.84;5051500;28;20068;-63
2022/07/05 06:45:13;;;;;;;10.95;9.85;;;;;;;30.08;34.34;99043.59;5051332;28;20045;-63
2022/07/05 06:47:39;;;;;;;14.70;10.20;;;;;;;30.09;34.14;99044.38;5048355;28;20049;-63
2022/07/05 06:50:05;;;;;;;11.35;9.55;;;;;;;30.15;33.93;99039.38;5033230;28;20056;-63
2022/07/05 06:52:32;;;;;;;13.25;10.30;;;;;;;30.01;34.09;99032.63;5033261;28;20179;-64
2022/07/05 06:54:59;;;;;;;10.75;9.70;;;;;;;29.83;34.42;99037.13;5031309;28;20034;-63
2022/07/05 06:57:25;;;;;;;10.95;9.85;;;;;;;29.84;34.57;99034.00;5031326;28;20136;-63
2022/07/05 06:59:51;;;;;;;14.38;10.73;;;;;;;29.89;34.40;99035.63;5032540;28;20057;-64
2022/07/05 07:02:16;;;;;;;11.18;9.73;;;;;;;30.04;34.56;99031.09;5031226;28;20038;-65
2022/07/05 07:04:42;;;;;;;13.10;9.88;;;;;;;30.10;34.43;99026.84;5031899;28;20052;-63
2022/07/05 07:09:17;;;;;;;11.88;10.63;;;;;;;30.14;34.15;99024.13;5032902;28;20449;-63
2022/07/05 07:09:57;;;;;;;10.57;9.57;;;;;;;30.25;33.93;99030.50;5031790;28;20038;-64
2022/07/05 07:12:23;;;;;;;11.45;9.23;;;;;;;30.33;33.27;99034.88;5032058;28;20517;-63
2022/07/05 07:14:49;;;;;;;11.45;9.52;;;;;;;30.46;33.31;99029.91;5031002;28;20041;-63
2022/07/05 07:17:15;;;;;;;10.63;9.38;;;;;;;30.52;32.86;99033.84;5031771;28;20128;-64
2022/07/05 07:19:40;;;;;;;9.25;8.45;;;;;;;30.49;33.02;99029.91;5032149;28;20069;-63
2022/07/05 07:22:06;;;;;;;10.52;9.18;;;;;;;30.55;33.04;99033.88;5032530;28;20049;-63
2022/07/05 07:24:32;;;;;;;12.73;9.52;;;;;;;30.66;32.76;99030.44;5030736;28;20045;-62
2022/07/05 07:27:04;;;;;;;10.75;9.68;;;;;;;30.62;32.80;99024.94;5031836;28;20048;-63
2022/07/05 07:29:35;;;;;;;12.07;9.70;;;;;;;30.53;33.42;99032.66;5031850;28;20087;-63
2022/07/05 07:32:02;;;;;;;10.32;9.15;;;;;;;30.35;33.59;99035.28;5032121;28;20072;-63
2022/07/05 07:34:29;;;;;;;11.40;9.43;;;;;;;30.33;34.28;99040.34;5031959;28;20091;-63
2022/07/05 07:36:55;;;;;;;14.68;9.68;;;;;;;30.30;34.08;99033.69;5032000;28;20056;-63
2022/07/05 07:39:21;;;;;;;11.10;9.95;;;;;;;30.32;33.71;99045.00;5032195;28;20045;-64
2022/07/05 07:41:47;;;;;;;10.85;9.05;;;;;;;30.30;34.27;99032.91;5031977;28;20041;-64
2022/07/05 07:44:13;;;;;;;10.68;9.32;;;;;;;30.20;32.99;99039.03;5030502;28;20041;-63
2022/07/05 07:46:39;;;;;;;16.10;10.80;;;;;;;30.17;32.99;99045.25;5031932;28;20049;-63
2022/07/05 07:49:06;;;;;;;10.98;9.88;;;;;;;30.15;32.89;99034.72;5031548;28;20473;-63
2022/07/05 07:51:32;;;;;;;11.93;9.52;;;;;;;30.31;32.71;99043.44;5031613;28;20038;-64
2022/07/05 07:53:58;;;;;;;11.35;9.70;;;;;;;30.47;33.01;99037.72;5029032;28;20037;-65
2022/07/05 07:56:24;;;;;;;10.73;9.70;;;;;;;30.59;32.41;99042.13;5030472;28;20038;-64
2022/07/05 07:58:49;;;;;;;10.77;9.68;;;;;;;30.76;32.50;99035.16;5029682;28;20041;-65
2022/07/05 08:01:15;;;;;;;13.18;10.55;;;;;;;30.86;33.22;99039.97;5030729;28;20066;-64
2022/07/05 08:03:41;;;;;;;11.85;10.50;;;;;;;30.94;32.89;99036.13;5031428;28;20033;-65
2022/07/05 08:06:08;;;;;;;10.88;9.80;;;;;;;31.01;32.11;99035.34;5030108;28;20142;-64
2022/07/05 08:08:34;;;;;;;11.63;9.68;;;;;;;30.92;32.23;99034.91;5031592;28;20049;-64
2022/07/05 08:11:00;;;;;;;11.05;10.00;;;;;;;30.93;32.21;99022.78;5030801;28;20037;-65
2022/07/05 08:13:26;;;;;;;10.98;9.98;;;;;;;31.00;31.99;99020.91;5031602;28;20498;-66
2022/07/05 08:15:52;;;;;;;12.15;11.05;;;;;;;31.10;32.20;99026.81;5028934;28;20080;-65
2022/07/05 08:21:38;;;;;;;17.52;11.93;;;;;;;31.05;32.18;99014.25;5030954;28;20473;-65
2022/07/05 08:23:55;;;;;;;12.38;11.27;;;;;;;31.21;31.90;99003.78;5030568;28;20566;-65
2022/07/05 08:26:21;;;;;;;11.50;10.40;;;;;;;31.54;31.80;99003.91;5031338;28;20133;-65
2022/07/05 08:28:47;;;;;;;13.90;11.15;;;;;;;31.64;31.16;99011.34;5029753;28;20033;-65
2022/07/05 08:31:13;;;;;;;14.02;11.68;;;;;;;31.60;31.92;99018.78;5031060;28;20041;-65
2022/07/05 08:33:38;;;;;;;11.90;10.70;;;;;;;31.64;31.59;99016.84;5031126;28;20042;-65
2022/07/05 08:36:04;;;;;;;11.93;10.73;;;;;;;31.71;31.36;99014.13;5031108;28;20415;-65
2022/07/05 08:38:30;;;;;;;12.07;10.85;;;;;;;31.69;31.52;99013.72;5031323;28;20041;-64
2022/07/05 08:40:57;;;;;;;12.68;10.98;;;;;;;31.64;30.74;99009.38;5030911;28;20052;-65
2022/07/05 08:43:23;;;;;;;11.57;10.40;;;;;;;31.75;30.71;99017.66;5031234;28;20053;-65
2022/07/05 08:45:53;;;;;;;12.60;10.23;;;;;;;32.03;30.13;99014.19;5030781;28;20042;-64
2022/07/05 08:48:20;;;;;;;11.85;10.75;;;;;;;32.25;29.86;99009.47;5031283;28;20053;-65
2022/07/05 08:50:48;;;;;;;12.32;10.52;;;;;;;32.43;29.92;99012.22;5030826;28;20049;-65
2022/07/05 08:53:21;;;;;;;17.50;10.93;;;;;;;32.49;30.81;98996.94;5029098;28;20507;-65
2022/07/05 08:55:47;;;;;;;13.50;10.98;;;;;;;32.43;29.92;99008.69;5030241;28;20049;-65
2022/07/05 08:58:13;;;;;;;15.98;11.38;;;;;;;32.50;30.51;99009.50;5031243;28;20491;-66
2022/07/05 09:00:39;;;;;;;12.13;10.80;;;;;;;32.64;29.84;98994.19;5030636;28;20106;-66
2022/07/05 09:03:06;;;;;;;11.60;10.40;;;;;;;32.69;29.84;98999.28;5031047;28;20116;-67
2022/07/05 09:05:44;;;;;;;11.30;10.20;;;;;;;32.69;28.86;98997.31;5030431;28;20049;-65
2022/07/05 09:08:11;;;;;;;11.63;10.32;;;;;;;32.70;28.64;99003.56;5029384;28;20203;-65
2022/07/05 09:10:37;;;;;;;10.85;9.75;;;;;;;32.72;28.23;99003.97;5029355;28;20045;-65
2022/07/05 09:13:03;;;;;;;10.95;9.88;;;;;;;32.70;28.58;98996.13;5030856;28;20045;-65
2022/07/05 09:15:29;;;;;;;12.95;10.68;;;;;;;32.43;30.87;98984.00;5029289;28;20103;-66
2022/07/05 09:17:55;;;;;;;12.27;11.02;;;;;;;31.70;32.85;99003.53;5030737;28;20057;-65
2022/07/05 09:20:21;;;;;;;13.95;10.93;;;;;;;31.17;33.51;99013.91;5030682;28;20400;-66
2022/07/05 09:22:54;;;;;;;14.30;11.85;;;;;;;30.83;34.23;99005.16;5029480;28;20052;-65
2022/07/05 09:25:23;;;;;;;12.32;10.95;;;;;;;30.43;35.02;98990.41;5030801;28;20041;-65
2022/07/05 09:28:13;;;;;;;13.68;12.38;;;;;;;30.18;36.21;99003.88;5032652;28;20132;-65
2022/07/05 09:30:41;;;;;;;15.75;14.25;;;;;;;29.89;37.22;99000.13;5016173;28;20044;-65
2022/07/05 09:33:09;;;;;;;18.48;13.73;;;;;;;29.73;37.65;99013.22;5034576;28;20054;-66
2022/07/05 09:35:40;;;;;;;18.98;13.20;;;;;;;29.54;37.82;99020.41;5033915;28;20419;-66
2022/07/05 09:38:15;;;;;;;15.73;12.88;;;;;;;29.47;38.11;99035.91;5034352;28;20045;-64
2022/07/05 09:40:49;;;;;;;14.77;13.32;;;;;;;29.16;39.55;99032.44;5033960;28;20037;-66
2022/07/05 09:43:17;;;;;;;14.30;12.82;;;;;;;28.85;40.18;99039.78;5033997;28;20045;-66
2022/07/05 09:45:51;;;;;;;30.20;14.38;;;;;;;28.86;42.74;99046.03;5034109;28;20044;-65
2022/07/05 09:48:16;;;;;;;18.02;14.05;;;;;;;28.76;42.63;99039.25;5034342;28;20045;-65
2022/07/05 09:50:43;;;;;;;17.67;13.13;;;;;;;28.48;42.49;99026.78;5034046;28;20044;-66
2022/07/05 09:53:11;;;;;;;15.90;13.80;;;;;;;28.15;42.72;99024.66;5032758;28;20045;-66
2022/07/05 09:55:37;;;;;;;14.25;12.80;;;;;;;27.58;42.56;99031.75;5033947;28;20052;-66
2022/07/05 09:58:04;;;;;;;15.60;13.50;;;;;;;27.22;44.74;99039.22;5033665;28;20554;-66
2022/07/05 10:00:29;;;;;;;16.33;14.63;;;;;;;26.93;46.91;99026.91;5033473;28;20058;-67
2022/07/05 10:03:03;;;;;;;18.45;14.48;;;;;;;26.87;45.72;99033.78;5032609;28;20056;-66
2022/07/05 10:05:31;;;;;;;16.20;14.55;;;;;;;26.94;47.21;99023.03;5033725;28;20037;-66
2022/07/05 10:08:01;;;;;;;16.77;13.88;;;;;;;27.03;47.17;99025.56;5033775;28;20183;-65
2022/07/05 10:10:30;;;;;;;14.48;12.93;;;;;;;27.07;45.81;99026.44;5033497;28;20033;-67
2022/07/05 10:13:05;;;;;;;14.65;12.10;;;;;;;27.23;43.62;99020.97;5033413;28;20072;-66
2022/07/05 10:15:35;;;;;;;13.82;12.20;;;;;;;27.32;43.07;99008.72;5033576;28;20072;-66
2022/07/05 10:18:05;;;;;;;13.27;11.90;;;;;;;27.36;42.93;99011.53;5033913;28;20045;-66
2022/07/05 10:20:34;;;;;;;;;;;;;;;27.50;43.53;99002.81;5032761;28;20037;-67
2022/07/05 10:23:04;;;;;;;13.05;11.27;;;;;;;27.60;42.49;99008.47;5031971;28;19929;-66
2022/07/05 10:25:31;;;;;;;13.48;11.98;;;;;;;27.57;43.57;99003.75;5033291;28;20045;-66
2022/07/05 10:28:00;;;;;;;15.70;11.55;;;;;;;27.43;43.94;98997.25;5032007;28;20115;-65
2022/07/05 10:30:27;;;;;;;13.48;12.15;;;;;;;27.45;44.17;98989.53;5035132;28;20038;-65
2022/07/05 10:32:53;;;;;;;16.65;13.25;;;;;;;27.51;45.84;98988.88;5024554;28;20049;-68
2022/07/05 10:35:20;;;;;;;14.82;13.30;;;;;;;27.63;46.22;98982.47;5031798;28;20051;-67
2022/07/05 10:37:46;;;;;;;15.15;13.18;;;;;;;27.76;45.84;98983.88;5032331;28;20056;-67
2022/07/05 10:40:13;;;;;;;16.50;12.73;;;;;;;27.89;44.75;98989.19;5043306;28;20032;-66
2022/07/05 10:42:50;;;;;;;14.70;13.20;;;;;;;27.96;45.36;98994.75;5052285;28;20045;-66
2022/07/05 10:45:25;;;;;;;15.55;12.65;;;;;;;28.13;46.13;99001.66;5036986;28;20037;-65
2022/07/05 10:48:27;;;;;;;14.98;12.25;;;;;;;27.80;45.37;99008.50;5030667;28;20045;-65
2022/07/05 10:50:53;;;;;;;20.55;13.43;;;;;;;27.52;46.07;98997.81;5031473;28;20586;-66
2022/07/05 10:53:21;;;;;;;14.48;12.40;;;;;;;27.36;45.71;98998.69;5032573;28;20100;-66
2022/07/05 10:55:52;;;;;;;15.95;12.93;;;;;;;27.31;46.81;99006.34;5031790;28;20103;-64
2022/07/05 10:58:27;;;;;;;15.93;13.02;;;;;;;27.27;48.01;99003.56;5032019;28;20125;-65
2022/07/05 11:01:12;;;;;;;15.30;13.32;;;;;;;27.36;46.68;98993.25;5031583;28;20057;-65
2022/07/05 11:03:47;;;;;;;16.20;13.50;;;;;;;27.21;47.02;98988.69;5013398;28;20042;-66
2022/07/05 11:06:28;;;;;;;16.17;12.90;;;;;;;27.33;46.67;99001.34;5030989;28;20052;-65
2022/07/05 11:08:57;;;;;;;14.25;12.65;;;;;;;27.18;47.01;99013.88;5032692;28;20375;-64
2022/07/05 11:11:24;;;;;;;16.50;13.05;;;;;;;27.12;47.33;99018.78;5031983;28;20045;-66
2022/07/05 11:13:51;;;;;;;14.43;12.82;;;;;;;27.03;47.30;99015.50;5029273;28;20072;-66
2022/07/05 11:16:22;;;;;;;15.70;13.20;;;;;;;26.95;47.47;99008.31;5029021;28;20052;-66
2022/07/05 11:18:51;;;;;;;14.07;12.68;;;;;;;26.91;47.22;99007.44;5032090;28;20068;-65
2022/07/05 11:21:18;;;;;;;15.90;13.07;;;;;;;26.89;47.70;99007.03;5042278;28;20065;-65
2022/07/05 11:23:44;;;;;;;14.00;12.60;;;;;;;26.90;48.24;99012.09;5028544;28;20132;-65